createdAt,value
2019-03-09T00:02:15.983Z,99855.54
2019-03-09T00:07:21.194Z,99844.97
2019-03-09T00:12:26.346Z,99834.91
2019-03-09T00:17:31.632Z,99836.22
2019-03-09T00:22:37.418Z,99833.34
2019-03-09T00:27:59.677Z,99833.61
2019-03-09T00:33:04.873Z,99832.84
2019-03-09T00:38:10.085Z,99837.32
2019-03-09T00:43:15.169Z,99829.64
2019-03-09T00:48:20.418Z,99818.59
2019-03-09T00:53:25.500Z,99816.45
2019-03-09T00:58:30.712Z,99825.68
2019-03-09T01:03:36.428Z,99829.41
2019-03-09T01:08:41.584Z,99818.02
2019-03-09T01:13:55.986Z,99819.86
2019-03-09T01:19:01.570Z,99814.05
2019-03-09T01:24:06.696Z,99799.23
2019-03-09T01:29:12.059Z,99776.54
2019-03-09T01:34:17.086Z,99758.79
2019-03-09T01:39:22.137Z,99741.28
2019-03-09T01:44:27.572Z,99733.62
2019-03-09T01:49:32.830Z,99717.75
2019-03-09T01:54:40.038Z,99711.41
2019-03-09T01:59:45.417Z,99697.38
2019-03-09T02:04:50.523Z,99684.98
2019-03-09T02:09:57.068Z,99678.66
2019-03-09T02:15:02.140Z,99674.67
2019-03-09T02:20:09.176Z,99661.45
2019-03-09T02:25:16.139Z,99658.53
2019-03-09T02:30:21.307Z,99640.05
2019-03-09T02:35:26.422Z,99643.73
2019-03-09T02:40:31.609Z,99629.71
2019-03-09T02:45:36.669Z,99622.05
2019-03-09T02:50:56.185Z,99597.73
2019-03-09T02:56:01.832Z,99581.33
2019-03-09T03:01:24.120Z,99548.53
2019-03-09T03:06:29.290Z,99548.58
2019-03-09T03:11:37.303Z,99541.22
2019-03-09T03:16:42.582Z,99533.05
2019-03-09T03:21:48.711Z,99521.70
2019-03-09T03:26:53.769Z,99521.20
2019-03-09T03:31:58.803Z,99518.53
2019-03-09T03:37:04.535Z,99498.75
2019-03-09T03:42:10.266Z,99488.95
2019-03-09T03:47:16.666Z,99474.89
2019-03-09T03:52:22.102Z,99476.94
2019-03-09T03:57:29.399Z,99459.73
2019-03-09T04:02:35.975Z,99448.38
2019-03-09T04:07:45.045Z,99437.31
2019-03-09T04:12:50.812Z,99424.36
2019-03-09T04:17:56.034Z,99408.23
2019-03-09T04:23:01.497Z,99398.01
2019-03-09T04:28:07.101Z,99376.89
2019-03-09T04:33:12.378Z,99364.71
2019-03-09T04:38:17.847Z,99360.75
2019-03-09T04:43:22.917Z,99354.20
2019-03-09T04:48:28.625Z,99351.81
2019-03-09T04:53:34.341Z,99343.11
2019-03-09T04:58:41.247Z,99334.80
2019-03-09T05:03:54.206Z,99326.81
2019-03-09T05:09:29.569Z,99322.02
2019-03-09T05:14:35.151Z,99307.70
2019-03-09T05:19:41.031Z,99299.44
2019-03-09T05:24:46.838Z,99290.96
2019-03-09T05:29:52.201Z,99281.52
2019-03-09T05:34:57.475Z,99289.97
2019-03-09T05:40:02.829Z,99278.14
2019-03-09T05:45:08.392Z,99278.27
2019-03-09T05:50:13.707Z,99273.89
2019-03-09T05:55:20.857Z,99266.05
2019-03-09T06:00:27.183Z,99272.49
2019-03-09T06:05:52.483Z,99279.93
2019-03-09T06:10:58.193Z,99274.07
2019-03-09T06:16:03.759Z,99279.44
2019-03-09T06:21:09.444Z,99264.14
2019-03-09T06:26:15.039Z,99267.55
2019-03-09T06:31:20.459Z,99274.94
2019-03-09T06:36:55.413Z,99277.74
2019-03-09T06:42:23.782Z,99298.80
2019-03-09T06:47:29.421Z,99290.00
2019-03-09T06:52:34.859Z,99303.92
2019-03-09T06:57:40.592Z,99301.77
2019-03-09T07:02:50.953Z,99295.36
2019-03-09T07:07:57.061Z,99308.05
2019-03-09T07:13:02.869Z,99317.59
2019-03-09T07:18:13.883Z,99322.08
2019-03-09T07:23:19.968Z,99300.83
2019-03-09T07:28:25.889Z,99297.89
2019-03-09T07:33:31.457Z,99292.51
2019-03-09T07:38:36.949Z,99279.44
2019-03-09T07:43:43.326Z,99279.27
2019-03-09T07:48:49.405Z,99249.10
2019-03-09T07:53:54.913Z,99300.27
2019-03-09T07:59:00.581Z,99285.20
2019-03-09T08:04:05.982Z,99290.22
2019-03-09T08:09:11.289Z,99300.34
2019-03-09T08:14:16.975Z,99299.06
2019-03-09T08:19:22.736Z,99296.37
2019-03-09T08:24:27.925Z,99290.38
2019-03-09T08:29:34.060Z,99309.88
2019-03-09T08:34:39.651Z,99300.42
2019-03-09T08:39:45.081Z,99301.59
2019-03-09T08:44:56.049Z,99299.69
2019-03-09T08:50:01.272Z,99304.95
2019-03-09T08:55:07.620Z,99316.33
2019-03-09T09:00:18.875Z,99328.02
2019-03-09T09:05:24.712Z,99336.58
2019-03-09T09:10:30.269Z,99362.22
2019-03-09T09:15:35.555Z,99360.97
2019-03-09T09:20:40.978Z,99397.09
2019-03-09T09:25:46.642Z,99363.73
2019-03-09T09:30:52.975Z,99374.36
2019-03-09T09:35:59.355Z,99363.00
2019-03-09T09:41:05.126Z,99409.94
2019-03-09T09:46:15.911Z,99388.61
2019-03-09T09:51:21.489Z,99394.89
2019-03-09T09:56:27.020Z,99400.15
2019-03-09T10:01:32.828Z,99400.45
2019-03-09T10:06:40.080Z,99379.26
2019-03-09T10:11:46.493Z,99351.99
2019-03-09T10:16:51.588Z,99361.94
2019-03-09T10:21:58.809Z,99352.77
2019-03-09T10:27:04.113Z,99351.33
2019-03-09T10:32:09.357Z,99359.27
2019-03-09T10:37:14.945Z,99365.30
2019-03-09T10:42:23.467Z,99381.08
2019-03-09T10:47:28.823Z,99375.69
2019-03-09T10:52:37.361Z,99374.74
2019-03-09T10:57:42.963Z,99387.13
2019-03-09T11:02:48.535Z,99376.47
2019-03-09T11:07:54.895Z,99375.12
2019-03-09T11:13:00.009Z,99379.42
2019-03-09T11:18:05.654Z,99396.52
2019-03-09T11:23:10.904Z,99388.72
2019-03-09T11:28:16.156Z,99373.97
2019-03-09T11:33:21.319Z,99359.41
2019-03-09T11:38:27.843Z,99360.11
2019-03-09T11:43:35.709Z,99377.55
2019-03-09T11:48:41.484Z,99367.08
2019-03-09T11:53:47.315Z,99359.17
2019-03-09T11:58:52.880Z,99375.92
2019-03-09T12:09:55.868Z,99390.78
2019-03-09T12:15:02.451Z,99359.53
2019-03-09T12:20:13.187Z,99381.05
2019-03-09T12:25:22.939Z,99374.02
2019-03-09T12:30:29.674Z,99349.17
2019-03-09T12:35:38.749Z,99360.05
2019-03-09T12:40:47.612Z,99358.22
2019-03-09T12:45:57.852Z,99344.13
2019-03-09T12:51:06.503Z,99326.19
2019-03-09T12:56:12.095Z,99326.34
2019-03-09T13:01:17.746Z,99319.75
2019-03-09T13:06:23.810Z,99348.05
2019-03-09T13:11:30.149Z,99334.11
2019-03-09T13:16:36.359Z,99328.31
2019-03-09T13:21:41.678Z,99305.27
2019-03-09T13:26:47.147Z,99297.01
2019-03-09T13:31:52.657Z,99302.94
2019-03-09T13:36:58.306Z,99272.39
2019-03-09T13:42:03.599Z,99300.03
2019-03-09T13:47:09.765Z,99290.94
2019-03-09T13:52:15.171Z,99276.81
2019-03-09T13:57:20.600Z,99279.37
2019-03-09T14:02:35.162Z,99234.97
2019-03-09T14:07:40.318Z,99237.07
2019-03-09T14:12:45.472Z,99216.33
2019-03-09T14:17:50.603Z,99205.66
2019-03-09T14:22:56.943Z,99192.97
2019-03-09T14:28:02.725Z,99189.21
2019-03-09T14:33:07.815Z,99180.04
2019-03-09T14:38:13.587Z,99179.93
2019-03-09T14:43:18.912Z,99170.87
2019-03-09T14:48:28.540Z,99153.89
2019-03-09T14:53:34.141Z,99162.78
2019-03-09T14:58:39.479Z,99154.16
2019-03-09T15:03:46.068Z,99129.58
2019-03-09T15:08:51.962Z,99111.34
2019-03-09T15:13:57.417Z,99097.91
2019-03-09T15:19:02.890Z,99069.07
2019-03-09T15:24:10.466Z,99044.33
2019-03-09T15:29:15.916Z,99025.11
2019-03-09T15:34:21.103Z,98989.41
2019-03-09T15:39:27.747Z,98967.33
2019-03-09T15:44:51.121Z,98965.53
2019-03-09T15:49:56.609Z,98953.17
2019-03-09T15:55:02.493Z,98946.49
2019-03-09T16:00:11.208Z,98957.64
2019-03-09T16:05:17.131Z,98924.81
2019-03-09T16:10:22.456Z,98923.63
2019-03-09T16:15:28.088Z,98934.17
2019-03-09T16:20:33.783Z,98944.50
2019-03-09T16:25:40.726Z,98933.56
2019-03-09T16:30:48.030Z,98939.72
2019-03-09T16:35:53.602Z,98893.18
2019-03-09T16:40:58.833Z,98879.87
2019-03-09T16:46:04.067Z,98858.17
2019-03-09T16:51:09.991Z,98835.58
2019-03-09T16:56:16.096Z,98785.06
2019-03-09T17:01:21.233Z,98755.00
2019-03-09T17:06:26.394Z,98723.33
2019-03-09T17:11:33.819Z,98703.16
2019-03-09T17:16:39.604Z,98811.91
2019-03-09T17:21:44.959Z,98900.58
2019-03-09T17:26:50.179Z,98871.72
2019-03-09T17:31:55.902Z,98876.48
2019-03-09T17:37:01.096Z,98875.84
2019-03-09T17:42:11.879Z,98855.95
2019-03-09T17:47:18.614Z,98882.78
2019-03-09T17:52:23.693Z,98917.23
2019-03-09T17:57:29.103Z,98956.38
2019-03-09T18:02:34.524Z,98959.27
2019-03-09T18:07:40.782Z,99000.91
2019-03-09T18:12:46.011Z,98969.33
2019-03-09T18:17:51.803Z,98972.47
2019-03-09T18:22:57.204Z,98982.70
2019-03-09T18:28:05.830Z,98973.84
2019-03-09T18:33:10.831Z,98991.38
2019-03-09T18:38:17.008Z,98974.49
2019-03-09T18:43:22.220Z,98994.72
2019-03-09T18:48:27.451Z,98998.59
2019-03-09T18:53:32.517Z,99032.17
2019-03-09T18:58:37.747Z,99034.45
2019-03-09T19:03:42.976Z,99032.83
2019-03-09T19:08:48.850Z,99042.95
2019-03-09T19:13:55.258Z,99100.06
2019-03-09T19:19:00.710Z,99111.99
2019-03-09T19:24:06.280Z,99153.88
2019-03-09T19:29:11.674Z,99159.47
2019-03-09T19:34:17.274Z,99198.42
2019-03-09T19:39:22.525Z,99236.80
2019-03-09T19:44:28.171Z,99227.62
2019-03-09T19:49:33.375Z,99232.41
2019-03-09T19:54:39.600Z,99225.41
2019-03-09T19:59:48.052Z,99262.75
2019-03-09T20:04:53.196Z,99267.64
2019-03-09T20:09:59.433Z,99302.11
2019-03-09T20:15:05.292Z,99298.98
2019-03-09T20:20:11.686Z,99328.70
2019-03-09T20:25:18.188Z,99333.80
2019-03-09T20:30:24.293Z,99372.48
2019-03-09T20:35:29.852Z,99381.02
2019-03-09T20:40:35.474Z,99400.45
2019-03-09T20:45:41.429Z,99408.70
2019-03-09T20:50:47.929Z,99441.28
2019-03-09T20:56:12.644Z,99463.28
2019-03-09T21:01:21.925Z,99482.61
2019-03-09T21:06:27.643Z,99493.75
2019-03-09T21:11:32.903Z,99507.20
2019-03-09T21:16:39.768Z,99521.28
2019-03-09T21:21:45.187Z,99529.74
2019-03-09T21:26:52.246Z,99539.78
2019-03-09T21:32:09.532Z,99560.72
2019-03-09T21:37:15.556Z,99552.55
2019-03-09T21:42:20.789Z,99563.95
2019-03-09T21:47:27.122Z,99570.61
2019-03-09T21:52:32.491Z,99584.88
2019-03-09T21:57:37.837Z,99606.03
2019-03-09T22:02:42.946Z,99618.18
2019-03-09T22:07:48.193Z,99613.72
2019-03-09T22:12:58.549Z,99621.93
2019-03-09T22:18:04.614Z,99633.30
2019-03-09T22:23:09.816Z,99631.47
2019-03-09T22:28:15.167Z,99636.76
2019-03-09T22:33:21.435Z,99636.77
2019-03-09T22:38:26.467Z,99643.91
2019-03-09T22:43:31.540Z,99661.34
2019-03-09T22:48:36.761Z,99659.78
2019-03-09T22:53:42.046Z,99663.98
2019-03-09T22:58:48.436Z,99676.70
2019-03-09T23:03:53.486Z,99683.03
2019-03-09T23:08:59.108Z,99690.70
2019-03-09T23:14:04.956Z,99691.75
2019-03-09T23:19:09.969Z,99701.81
2019-03-09T23:24:15.516Z,99705.24
2019-03-09T23:29:20.569Z,99708.70
2019-03-09T23:34:25.548Z,99712.40
2019-03-09T23:39:31.015Z,99723.47
2019-03-09T23:44:36.011Z,99720.83
2019-03-09T23:49:42.012Z,99734.07
2019-03-09T23:54:48.188Z,99716.64
2019-03-09T23:59:53.284Z,99719.02
